sensor_id;sensor_type;location;lat;lon;timestamp;temperature;humidity
18101;DHT22;9177;49.156;8.142;2023-01-24T00:00:40;18.50;88.10
18101;DHT22;9177;49.156;8.142;2023-01-24T00:03:07;18.50;88.10
18101;DHT22;9177;49.156;8.142;2023-01-24T00:05:37;18.50;88.10
18101;DHT22;9177;49.156;8.142;2023-01-24T00:08:04;18.50;88.10
18101;DHT22;9177;49.156;8.142;2023-01-24T00:10:31;18.50;88.10
18101;DHT22;9177;49.156;8.142;2023-01-24T00:12:58;18.50;88.10
18101;DHT22;9177;49.156;8.142;2023-01-24T00:15:25;18.50;88.10
18101;DHT22;9177;49.156;8.142;2023-01-24T00:17:53;18.60;88.10
18101;DHT22;9177;49.156;8.142;2023-01-24T00:20:21;18.50;88.00
18101;DHT22;9177;49.156;8.142;2023-01-24T00:22:50;18.50;87.90
18101;DHT22;9177;49.156;8.142;2023-01-24T00:25:17;18.50;87.90
18101;DHT22;9177;49.156;8.142;2023-01-24T00:27:44;18.50;88.00
18101;DHT22;9177;49.156;8.142;2023-01-24T00:30:11;18.50;87.90
18101;DHT22;9177;49.156;8.142;2023-01-24T00:32:38;18.50;88.00
18101;DHT22;9177;49.156;8.142;2023-01-24T00:35:07;18.50;87.90
18101;DHT22;9177;49.156;8.142;2023-01-24T00:37:34;18.50;87.90
18101;DHT22;9177;49.156;8.142;2023-01-24T00:40:01;18.50;87.90
18101;DHT22;9177;49.156;8.142;2023-01-24T00:42:28;18.50;87.90
18101;DHT22;9177;49.156;8.142;2023-01-24T00:44:55;18.60;87.90
18101;DHT22;9177;49.156;8.142;2023-01-24T00:47:22;18.60;87.90
18101;DHT22;9177;49.156;8.142;2023-01-24T00:49:48;18.50;87.90
18101;DHT22;9177;49.156;8.142;2023-01-24T00:52:16;18.60;87.90
18101;DHT22;9177;49.156;8.142;2023-01-24T00:54:43;18.50;87.90
18101;DHT22;9177;49.156;8.142;2023-01-24T00:57:10;18.60;87.90
18101;DHT22;9177;49.156;8.142;2023-01-24T00:59:37;18.60;87.90
18101;DHT22;9177;49.156;8.142;2023-01-24T01:02:07;18.50;87.80
18101;DHT22;9177;49.156;8.142;2023-01-24T01:04:34;18.60;87.90
18101;DHT22;9177;49.156;8.142;2023-01-24T01:07:01;18.60;87.90
18101;DHT22;9177;49.156;8.142;2023-01-24T01:09:29;18.60;87.90
18101;DHT22;9177;49.156;8.142;2023-01-24T01:11:56;18.60;87.90
18101;DHT22;9177;49.156;8.142;2023-01-24T01:14:23;18.60;87.90
18101;DHT22;9177;49.156;8.142;2023-01-24T01:16:50;18.60;87.90
18101;DHT22;9177;49.156;8.142;2023-01-24T01:19:16;18.60;88.30
18101;DHT22;9177;49.156;8.142;2023-01-24T01:21:43;18.60;87.90
18101;DHT22;9177;49.156;8.142;2023-01-24T01:24:10;18.60;87.90
18101;DHT22;9177;49.156;8.142;2023-01-24T01:26:38;18.60;87.90
18101;DHT22;9177;49.156;8.142;2023-01-24T01:29:05;18.60;87.80
18101;DHT22;9177;49.156;8.142;2023-01-24T01:31:32;18.60;87.80
18101;DHT22;9177;49.156;8.142;2023-01-24T01:33:59;18.60;87.80
18101;DHT22;9177;49.156;8.142;2023-01-24T01:36:25;18.60;87.80
18101;DHT22;9177;49.156;8.142;2023-01-24T01:38:52;18.60;87.80
18101;DHT22;9177;49.156;8.142;2023-01-24T01:41:19;18.60;87.80
18101;DHT22;9177;49.156;8.142;2023-01-24T01:43:48;18.60;87.80
18101;DHT22;9177;49.156;8.142;2023-01-24T01:46:37;18.60;87.80
18101;DHT22;9177;49.156;8.142;2023-01-24T01:49:11;18.60;87.80
18101;DHT22;9177;49.156;8.142;2023-01-24T01:51:44;18.60;87.80
18101;DHT22;9177;49.156;8.142;2023-01-24T01:54:16;18.60;87.80
18101;DHT22;9177;49.156;8.142;2023-01-24T01:56:47;18.60;87.80
18101;DHT22;9177;49.156;8.142;2023-01-24T01:59:17;18.60;87.70
18101;DHT22;9177;49.156;8.142;2023-01-24T02:01:46;18.60;87.70
18101;DHT22;9177;49.156;8.142;2023-01-24T02:04:16;18.60;87.70
18101;DHT22;9177;49.156;8.142;2023-01-24T02:06:50;18.60;87.70
18101;DHT22;9177;49.156;8.142;2023-01-24T02:09:21;18.60;87.70
18101;DHT22;9177;49.156;8.142;2023-01-24T02:11:49;18.60;87.70
18101;DHT22;9177;49.156;8.142;2023-01-24T02:14:20;18.60;87.70
18101;DHT22;9177;49.156;8.142;2023-01-24T02:17:06;18.60;87.80
18101;DHT22;9177;49.156;8.142;2023-01-24T02:19:50;18.60;87.70
18101;DHT22;9177;49.156;8.142;2023-01-24T02:22:25;18.60;87.70
18101;DHT22;9177;49.156;8.142;2023-01-24T02:25:03;18.60;87.80
18101;DHT22;9177;49.156;8.142;2023-01-24T02:27:33;18.60;88.60
18101;DHT22;9177;49.156;8.142;2023-01-24T02:30:00;18.60;87.70
18101;DHT22;9177;49.156;8.142;2023-01-24T02:32:27;18.60;87.70
18101;DHT22;9177;49.156;8.142;2023-01-24T02:34:53;18.60;87.80
18101;DHT22;9177;49.156;8.142;2023-01-24T02:37:20;18.60;87.70
18101;DHT22;9177;49.156;8.142;2023-01-24T02:40:03;18.60;87.70
18101;DHT22;9177;49.156;8.142;2023-01-24T02:42:35;18.60;87.70
18101;DHT22;9177;49.156;8.142;2023-01-24T02:45:05;18.60;87.70
18101;DHT22;9177;49.156;8.142;2023-01-24T02:47:37;18.60;87.70
18101;DHT22;9177;49.156;8.142;2023-01-24T02:50:05;18.60;87.70
18101;DHT22;9177;49.156;8.142;2023-01-24T02:52:33;18.60;87.70
18101;DHT22;9177;49.156;8.142;2023-01-24T02:55:18;18.60;87.70
18101;DHT22;9177;49.156;8.142;2023-01-24T02:57:46;18.60;87.70
18101;DHT22;9177;49.156;8.142;2023-01-24T03:00:30;18.60;87.70
18101;DHT22;9177;49.156;8.142;2023-01-24T03:02:57;18.60;87.70
18101;DHT22;9177;49.156;8.142;2023-01-24T03:05:24;18.60;87.70
18101;DHT22;9177;49.156;8.142;2023-01-24T03:07:51;18.60;87.70
18101;DHT22;9177;49.156;8.142;2023-01-24T03:10:18;18.60;87.70
18101;DHT22;9177;49.156;8.142;2023-01-24T03:12:47;18.60;87.70
18101;DHT22;9177;49.156;8.142;2023-01-24T03:15:31;18.60;87.70
18101;DHT22;9177;49.156;8.142;2023-01-24T03:18:15;18.60;87.70
18101;DHT22;9177;49.156;8.142;2023-01-24T03:21:00;18.60;87.70
18101;DHT22;9177;49.156;8.142;2023-01-24T03:23:44;18.60;87.70
18101;DHT22;9177;49.156;8.142;2023-01-24T03:26:28;18.60;87.70
18101;DHT22;9177;49.156;8.142;2023-01-24T03:29:14;18.60;87.70
18101;DHT22;9177;49.156;8.142;2023-01-24T03:31:58;18.60;87.70
18101;DHT22;9177;49.156;8.142;2023-01-24T03:34:42;18.60;87.70
18101;DHT22;9177;49.156;8.142;2023-01-24T03:37:15;18.60;87.90
18101;DHT22;9177;49.156;8.142;2023-01-24T03:39:42;18.60;87.70
18101;DHT22;9177;49.156;8.142;2023-01-24T03:42:24;18.60;87.70
18101;DHT22;9177;49.156;8.142;2023-01-24T03:44:53;18.60;87.70
18101;DHT22;9177;49.156;8.142;2023-01-24T03:47:20;18.60;87.70
18101;DHT22;9177;49.156;8.142;2023-01-24T03:49:47;18.60;87.70
18101;DHT22;9177;49.156;8.142;2023-01-24T03:52:31;18.60;87.70
18101;DHT22;9177;49.156;8.142;2023-01-24T03:54:59;18.60;87.70
18101;DHT22;9177;49.156;8.142;2023-01-24T03:57:28;18.60;87.70
18101;DHT22;9177;49.156;8.142;2023-01-24T03:59:56;18.60;87.70
18101;DHT22;9177;49.156;8.142;2023-01-24T04:02:23;18.60;87.70
18101;DHT22;9177;49.156;8.142;2023-01-24T04:04:50;18.60;87.70
18101;DHT22;9177;49.156;8.142;2023-01-24T04:07:34;18.50;87.60
18101;DHT22;9177;49.156;8.142;2023-01-24T04:10:01;18.60;87.60
18101;DHT22;9177;49.156;8.142;2023-01-24T04:12:28;18.60;87.60
18101;DHT22;9177;49.156;8.142;2023-01-24T04:14:56;18.60;87.60
18101;DHT22;9177;49.156;8.142;2023-01-24T04:17:23;18.60;87.60
18101;DHT22;9177;49.156;8.142;2023-01-24T04:19:50;18.60;87.60
18101;DHT22;9177;49.156;8.142;2023-01-24T04:22:17;18.60;87.70
18101;DHT22;9177;49.156;8.142;2023-01-24T04:24:44;18.60;87.60
18101;DHT22;9177;49.156;8.142;2023-01-24T04:27:12;18.60;87.60
18101;DHT22;9177;49.156;8.142;2023-01-24T04:29:39;18.60;87.60
18101;DHT22;9177;49.156;8.142;2023-01-24T04:32:07;18.60;87.70
18101;DHT22;9177;49.156;8.142;2023-01-24T04:34:35;18.60;87.60
18101;DHT22;9177;49.156;8.142;2023-01-24T04:37:01;18.60;87.60
18101;DHT22;9177;49.156;8.142;2023-01-24T04:39:28;18.60;87.60
18101;DHT22;9177;49.156;8.142;2023-01-24T04:41:55;18.60;87.60
18101;DHT22;9177;49.156;8.142;2023-01-24T04:44:24;18.60;87.60
18101;DHT22;9177;49.156;8.142;2023-01-24T04:46:54;18.60;87.60
18101;DHT22;9177;49.156;8.142;2023-01-24T04:49:22;18.60;87.60
18101;DHT22;9177;49.156;8.142;2023-01-24T04:51:49;18.60;87.60
18101;DHT22;9177;49.156;8.142;2023-01-24T04:54:17;18.60;87.60
18101;DHT22;9177;49.156;8.142;2023-01-24T04:56:44;18.60;87.60
18101;DHT22;9177;49.156;8.142;2023-01-24T04:59:11;18.60;87.60
18101;DHT22;9177;49.156;8.142;2023-01-24T05:01:38;18.60;87.70
18101;DHT22;9177;49.156;8.142;2023-01-24T05:04:06;18.60;87.60
18101;DHT22;9177;49.156;8.142;2023-01-24T05:07:12;18.60;87.60
18101;DHT22;9177;49.156;8.142;2023-01-24T05:09:38;18.60;87.60
18101;DHT22;9177;49.156;8.142;2023-01-24T05:12:05;18.60;87.60
18101;DHT22;9177;49.156;8.142;2023-01-24T05:14:32;18.60;87.60
18101;DHT22;9177;49.156;8.142;2023-01-24T05:16:59;18.60;87.60
18101;DHT22;9177;49.156;8.142;2023-01-24T05:19:26;18.60;87.60
18101;DHT22;9177;49.156;8.142;2023-01-24T05:21:52;18.60;87.60
18101;DHT22;9177;49.156;8.142;2023-01-24T05:24:21;18.60;87.60
18101;DHT22;9177;49.156;8.142;2023-01-24T05:26:47;18.60;87.60
18101;DHT22;9177;49.156;8.142;2023-01-24T05:29:15;18.60;87.60
18101;DHT22;9177;49.156;8.142;2023-01-24T05:31:44;18.60;87.60
18101;DHT22;9177;49.156;8.142;2023-01-24T05:34:10;18.60;87.60
18101;DHT22;9177;49.156;8.142;2023-01-24T05:36:37;18.60;87.60
18101;DHT22;9177;49.156;8.142;2023-01-24T05:39:04;18.60;87.60
18101;DHT22;9177;49.156;8.142;2023-01-24T05:41:32;18.60;87.60
18101;DHT22;9177;49.156;8.142;2023-01-24T05:43:59;18.60;87.60
18101;DHT22;9177;49.156;8.142;2023-01-24T05:46:26;18.60;87.60
18101;DHT22;9177;49.156;8.142;2023-01-24T05:48:53;18.60;87.60
18101;DHT22;9177;49.156;8.142;2023-01-24T05:51:20;18.60;87.60
18101;DHT22;9177;49.156;8.142;2023-01-24T05:53:47;18.60;87.60
18101;DHT22;9177;49.156;8.142;2023-01-24T05:56:16;18.60;87.60
18101;DHT22;9177;49.156;8.142;2023-01-24T05:58:45;18.60;87.60
18101;DHT22;9177;49.156;8.142;2023-01-24T06:01:14;18.60;87.60
18101;DHT22;9177;49.156;8.142;2023-01-24T06:03:43;18.60;87.70
18101;DHT22;9177;49.156;8.142;2023-01-24T06:06:12;18.60;87.60
18101;DHT22;9177;49.156;8.142;2023-01-24T06:08:39;18.50;87.60
18101;DHT22;9177;49.156;8.142;2023-01-24T06:11:07;18.60;87.60
18101;DHT22;9177;49.156;8.142;2023-01-24T06:13:36;18.60;87.60
18101;DHT22;9177;49.156;8.142;2023-01-24T06:16:06;18.50;87.60
18101;DHT22;9177;49.156;8.142;2023-01-24T06:18:33;18.50;87.60
18101;DHT22;9177;49.156;8.142;2023-01-24T06:21:05;18.50;87.60
18101;DHT22;9177;49.156;8.142;2023-01-24T06:23:32;18.60;87.60
18101;DHT22;9177;49.156;8.142;2023-01-24T06:26:00;18.50;87.60
18101;DHT22;9177;49.156;8.142;2023-01-24T06:28:27;18.50;87.60
18101;DHT22;9177;49.156;8.142;2023-01-24T06:31:02;18.50;87.60
18101;DHT22;9177;49.156;8.142;2023-01-24T06:33:36;18.50;87.60
18101;DHT22;9177;49.156;8.142;2023-01-24T06:36:28;18.60;87.60
18101;DHT22;9177;49.156;8.142;2023-01-24T06:38:58;18.50;87.60
18101;DHT22;9177;49.156;8.142;2023-01-24T06:41:25;18.60;87.60
18101;DHT22;9177;49.156;8.142;2023-01-24T06:43:52;18.50;87.60
18101;DHT22;9177;49.156;8.142;2023-01-24T06:46:19;18.50;87.60
18101;DHT22;9177;49.156;8.142;2023-01-24T06:48:48;18.60;87.70
18101;DHT22;9177;49.156;8.142;2023-01-24T06:51:14;18.50;87.60
18101;DHT22;9177;49.156;8.142;2023-01-24T06:53:44;18.50;87.60
18101;DHT22;9177;49.156;8.142;2023-01-24T06:56:14;18.60;87.60
18101;DHT22;9177;49.156;8.142;2023-01-24T06:58:41;18.50;87.60
18101;DHT22;9177;49.156;8.142;2023-01-24T07:01:08;18.50;87.60
18101;DHT22;9177;49.156;8.142;2023-01-24T07:03:35;18.50;87.60
18101;DHT22;9177;49.156;8.142;2023-01-24T07:06:03;18.50;87.60
18101;DHT22;9177;49.156;8.142;2023-01-24T07:08:30;18.50;87.60
18101;DHT22;9177;49.156;8.142;2023-01-24T07:10:57;18.50;87.60
18101;DHT22;9177;49.156;8.142;2023-01-24T07:13:24;18.50;87.60
18101;DHT22;9177;49.156;8.142;2023-01-24T07:15:50;18.50;87.60
18101;DHT22;9177;49.156;8.142;2023-01-24T07:18:18;18.50;87.60
18101;DHT22;9177;49.156;8.142;2023-01-24T07:20:46;18.50;87.60
18101;DHT22;9177;49.156;8.142;2023-01-24T07:23:20;18.50;87.60
18101;DHT22;9177;49.156;8.142;2023-01-24T07:25:47;18.50;87.60
18101;DHT22;9177;49.156;8.142;2023-01-24T07:28:15;18.50;87.70
18101;DHT22;9177;49.156;8.142;2023-01-24T07:30:42;18.50;87.70
18101;DHT22;9177;49.156;8.142;2023-01-24T07:33:10;18.50;87.70
18101;DHT22;9177;49.156;8.142;2023-01-24T07:35:38;18.50;87.70
18101;DHT22;9177;49.156;8.142;2023-01-24T07:38:04;18.50;87.70
18101;DHT22;9177;49.156;8.142;2023-01-24T07:40:33;18.50;87.70
18101;DHT22;9177;49.156;8.142;2023-01-24T07:43:00;18.50;87.70
18101;DHT22;9177;49.156;8.142;2023-01-24T07:45:27;18.50;87.70
18101;DHT22;9177;49.156;8.142;2023-01-24T07:47:55;18.50;87.70
18101;DHT22;9177;49.156;8.142;2023-01-24T07:50:22;18.50;87.70
18101;DHT22;9177;49.156;8.142;2023-01-24T07:52:50;18.50;87.70
18101;DHT22;9177;49.156;8.142;2023-01-24T07:55:18;18.50;87.70
18101;DHT22;9177;49.156;8.142;2023-01-24T07:57:46;18.50;87.70
18101;DHT22;9177;49.156;8.142;2023-01-24T08:00:14;18.50;87.70
18101;DHT22;9177;49.156;8.142;2023-01-24T08:02:41;18.50;87.70
18101;DHT22;9177;49.156;8.142;2023-01-24T08:05:08;18.50;87.70
18101;DHT22;9177;49.156;8.142;2023-01-24T08:07:35;18.50;87.70
18101;DHT22;9177;49.156;8.142;2023-01-24T08:10:03;18.50;87.70
18101;DHT22;9177;49.156;8.142;2023-01-24T08:12:30;18.50;87.70
18101;DHT22;9177;49.156;8.142;2023-01-24T08:14:58;18.50;87.70
18101;DHT22;9177;49.156;8.142;2023-01-24T08:17:26;18.50;87.70
18101;DHT22;9177;49.156;8.142;2023-01-24T08:19:52;18.50;87.70
18101;DHT22;9177;49.156;8.142;2023-01-24T08:22:19;18.50;87.60
18101;DHT22;9177;49.156;8.142;2023-01-24T08:24:46;18.50;87.60
18101;DHT22;9177;49.156;8.142;2023-01-24T08:27:13;18.60;87.70
18101;DHT22;9177;49.156;8.142;2023-01-24T08:29:40;18.50;87.60
18101;DHT22;9177;49.156;8.142;2023-01-24T08:32:08;18.50;87.60
18101;DHT22;9177;49.156;8.142;2023-01-24T08:34:35;18.50;87.60
18101;DHT22;9177;49.156;8.142;2023-01-24T08:37:01;18.50;87.60
18101;DHT22;9177;49.156;8.142;2023-01-24T08:39:28;18.50;87.60
18101;DHT22;9177;49.156;8.142;2023-01-24T08:41:55;18.50;87.70
18101;DHT22;9177;49.156;8.142;2023-01-24T08:44:22;18.50;87.60
18101;DHT22;9177;49.156;8.142;2023-01-24T08:46:49;18.50;87.60
18101;DHT22;9177;49.156;8.142;2023-01-24T08:49:17;18.50;87.70
18101;DHT22;9177;49.156;8.142;2023-01-24T08:51:44;18.50;87.70
18101;DHT22;9177;49.156;8.142;2023-01-24T08:54:13;18.50;87.90
18101;DHT22;9177;49.156;8.142;2023-01-24T08:56:40;18.50;88.00
18101;DHT22;9177;49.156;8.142;2023-01-24T08:59:07;18.50;88.10
18101;DHT22;9177;49.156;8.142;2023-01-24T09:01:34;18.50;88.00
18101;DHT22;9177;49.156;8.142;2023-01-24T09:04:01;18.50;88.00
18101;DHT22;9177;49.156;8.142;2023-01-24T09:06:31;18.50;88.00
18101;DHT22;9177;49.156;8.142;2023-01-24T09:08:58;18.60;88.00
18101;DHT22;9177;49.156;8.142;2023-01-24T09:11:25;18.60;88.10
18101;DHT22;9177;49.156;8.142;2023-01-24T09:13:52;18.60;88.10
18101;DHT22;9177;49.156;8.142;2023-01-24T09:16:19;18.50;88.20
18101;DHT22;9177;49.156;8.142;2023-01-24T09:18:45;18.50;88.20
18101;DHT22;9177;49.156;8.142;2023-01-24T09:21:14;18.50;88.20
18101;DHT22;9177;49.156;8.142;2023-01-24T09:23:43;18.50;88.20
18101;DHT22;9177;49.156;8.142;2023-01-24T09:26:10;18.60;88.20
18101;DHT22;9177;49.156;8.142;2023-01-24T09:28:37;18.50;88.10
18101;DHT22;9177;49.156;8.142;2023-01-24T09:31:07;18.50;88.20
18101;DHT22;9177;49.156;8.142;2023-01-24T09:33:34;18.60;88.20
18101;DHT22;9177;49.156;8.142;2023-01-24T09:36:03;18.50;88.20
18101;DHT22;9177;49.156;8.142;2023-01-24T09:38:32;18.50;88.10
18101;DHT22;9177;49.156;8.142;2023-01-24T09:41:08;18.50;88.10
18101;DHT22;9177;49.156;8.142;2023-01-24T09:43:43;18.50;88.10
18101;DHT22;9177;49.156;8.142;2023-01-24T09:46:30;18.50;88.20
18101;DHT22;9177;49.156;8.142;2023-01-24T09:49:09;18.50;88.10
18101;DHT22;9177;49.156;8.142;2023-01-24T09:51:42;18.50;88.20
18101;DHT22;9177;49.156;8.142;2023-01-24T09:54:15;18.60;88.20
18101;DHT22;9177;49.156;8.142;2023-01-24T09:56:46;18.50;88.10
18101;DHT22;9177;49.156;8.142;2023-01-24T09:59:20;18.50;88.10
18101;DHT22;9177;49.156;8.142;2023-01-24T10:01:48;18.50;88.10
18101;DHT22;9177;49.156;8.142;2023-01-24T10:04:21;18.50;88.20
18101;DHT22;9177;49.156;8.142;2023-01-24T10:09:47;18.50;88.10
18101;DHT22;9177;49.156;8.142;2023-01-24T10:12:29;18.60;88.20
18101;DHT22;9177;49.156;8.142;2023-01-24T10:15:08;18.60;88.10
18101;DHT22;9177;49.156;8.142;2023-01-24T10:17:52;18.60;88.90
18101;DHT22;9177;49.156;8.142;2023-01-24T10:20:44;18.60;88.20
18101;DHT22;9177;49.156;8.142;2023-01-24T10:23:15;18.60;88.20
18101;DHT22;9177;49.156;8.142;2023-01-24T10:25:57;18.60;88.10
18101;DHT22;9177;49.156;8.142;2023-01-24T10:28:33;18.60;88.20
18101;DHT22;9177;49.156;8.142;2023-01-24T10:31:05;18.60;88.10
18101;DHT22;9177;49.156;8.142;2023-01-24T10:33:39;18.60;88.20
18101;DHT22;9177;49.156;8.142;2023-01-24T10:36:11;18.60;88.20
18101;DHT22;9177;49.156;8.142;2023-01-24T10:38:40;18.60;88.20
18101;DHT22;9177;49.156;8.142;2023-01-24T10:41:16;18.50;88.10
18101;DHT22;9177;49.156;8.142;2023-01-24T10:43:49;18.50;88.10
18101;DHT22;9177;49.156;8.142;2023-01-24T10:49:19;18.60;88.20
18101;DHT22;9177;49.156;8.142;2023-01-24T10:52:08;18.60;88.20
18101;DHT22;9177;49.156;8.142;2023-01-24T10:54:45;18.60;88.20
18101;DHT22;9177;49.156;8.142;2023-01-24T10:57:18;18.60;88.20
18101;DHT22;9177;49.156;8.142;2023-01-24T10:59:47;18.60;88.20
18101;DHT22;9177;49.156;8.142;2023-01-24T11:02:20;18.60;88.20
18101;DHT22;9177;49.156;8.142;2023-01-24T11:04:52;18.60;88.20
18101;DHT22;9177;49.156;8.142;2023-01-24T11:07:27;18.50;88.20
18101;DHT22;9177;49.156;8.142;2023-01-24T11:09:58;18.50;88.20
18101;DHT22;9177;49.156;8.142;2023-01-24T11:12:25;18.50;88.20
18101;DHT22;9177;49.156;8.142;2023-01-24T11:14:54;18.50;88.20
18101;DHT22;9177;49.156;8.142;2023-01-24T11:17:32;18.60;88.20
18101;DHT22;9177;49.156;8.142;2023-01-24T11:20:20;18.60;88.20
18101;DHT22;9177;49.156;8.142;2023-01-24T11:22:50;18.60;88.20
18101;DHT22;9177;49.156;8.142;2023-01-24T11:25:17;18.60;88.20
18101;DHT22;9177;49.156;8.142;2023-01-24T11:27:45;18.60;88.20
18101;DHT22;9177;49.156;8.142;2023-01-24T11:30:18;18.60;88.20
18101;DHT22;9177;49.156;8.142;2023-01-24T11:33:00;18.50;88.20
18101;DHT22;9177;49.156;8.142;2023-01-24T11:35:34;18.50;88.20
18101;DHT22;9177;49.156;8.142;2023-01-24T11:38:16;18.50;88.20
18101;DHT22;9177;49.156;8.142;2023-01-24T11:40:51;18.50;88.20
18101;DHT22;9177;49.156;8.142;2023-01-24T11:46:20;18.50;88.30
18101;DHT22;9177;49.156;8.142;2023-01-24T11:48:53;18.50;88.30
18101;DHT22;9177;49.156;8.142;2023-01-24T11:51:36;18.60;88.30
18101;DHT22;9177;49.156;8.142;2023-01-24T11:54:15;18.50;88.20
18101;DHT22;9177;49.156;8.142;2023-01-24T11:56:51;18.50;88.20
18101;DHT22;9177;49.156;8.142;2023-01-24T11:59:47;18.50;88.20
18101;DHT22;9177;49.156;8.142;2023-01-24T12:02:59;18.50;88.20
18101;DHT22;9177;49.156;8.142;2023-01-24T12:05:46;18.50;88.20
18101;DHT22;9177;49.156;8.142;2023-01-24T12:08:32;18.50;88.20
18101;DHT22;9177;49.156;8.142;2023-01-24T12:11:06;18.50;88.20
18101;DHT22;9177;49.156;8.142;2023-01-24T12:13:42;18.50;88.20
18101;DHT22;9177;49.156;8.142;2023-01-24T12:16:18;18.50;88.30
18101;DHT22;9177;49.156;8.142;2023-01-24T12:19:01;18.50;88.30
18101;DHT22;9177;49.156;8.142;2023-01-24T12:21:32;18.50;88.30
18101;DHT22;9177;49.156;8.142;2023-01-24T12:24:02;18.50;88.20
18101;DHT22;9177;49.156;8.142;2023-01-24T12:26:31;18.50;88.20
18101;DHT22;9177;49.156;8.142;2023-01-24T12:29:02;18.50;88.20
18101;DHT22;9177;49.156;8.142;2023-01-24T12:31:39;18.50;88.20
18101;DHT22;9177;49.156;8.142;2023-01-24T12:34:21;18.60;88.20
18101;DHT22;9177;49.156;8.142;2023-01-24T12:36:59;18.50;88.20
18101;DHT22;9177;49.156;8.142;2023-01-24T12:39:34;18.50;88.20
18101;DHT22;9177;49.156;8.142;2023-01-24T12:42:08;18.50;88.30
18101;DHT22;9177;49.156;8.142;2023-01-24T12:44:42;18.50;88.30
18101;DHT22;9177;49.156;8.142;2023-01-24T12:47:20;18.50;88.20
18101;DHT22;9177;49.156;8.142;2023-01-24T12:50:01;18.50;88.30
18101;DHT22;9177;49.156;8.142;2023-01-24T12:52:35;18.60;88.30
18101;DHT22;9177;49.156;8.142;2023-01-24T12:55:09;18.60;88.20
18101;DHT22;9177;49.156;8.142;2023-01-24T12:57:43;18.50;88.20
18101;DHT22;9177;49.156;8.142;2023-01-24T13:00:18;18.60;88.30
18101;DHT22;9177;49.156;8.142;2023-01-24T13:03:13;18.60;88.20
18101;DHT22;9177;49.156;8.142;2023-01-24T13:05:52;18.60;88.20
18101;DHT22;9177;49.156;8.142;2023-01-24T13:08:33;18.60;88.30
18101;DHT22;9177;49.156;8.142;2023-01-24T13:11:15;18.60;88.40
18101;DHT22;9177;49.156;8.142;2023-01-24T13:13:50;18.60;88.50
18101;DHT22;9177;49.156;8.142;2023-01-24T13:16:36;18.60;88.60
18101;DHT22;9177;49.156;8.142;2023-01-24T13:19:15;18.60;88.60
18101;DHT22;9177;49.156;8.142;2023-01-24T13:21:51;18.60;88.70
18101;DHT22;9177;49.156;8.142;2023-01-24T13:24:41;18.60;88.80
18101;DHT22;9177;49.156;8.142;2023-01-24T13:27:31;18.60;88.80
18101;DHT22;9177;49.156;8.142;2023-01-24T13:30:22;18.60;88.80
18101;DHT22;9177;49.156;8.142;2023-01-24T13:32:53;18.60;88.80
18101;DHT22;9177;49.156;8.142;2023-01-24T13:35:21;18.60;88.80
18101;DHT22;9177;49.156;8.142;2023-01-24T13:37:52;18.60;88.80
18101;DHT22;9177;49.156;8.142;2023-01-24T13:40:25;18.60;88.80
18101;DHT22;9177;49.156;8.142;2023-01-24T13:42:55;18.50;88.70
18101;DHT22;9177;49.156;8.142;2023-01-24T13:45:47;18.60;88.80
18101;DHT22;9177;49.156;8.142;2023-01-24T13:51:45;18.60;88.80
18101;DHT22;9177;49.156;8.142;2023-01-24T13:54:37;18.60;88.70
18101;DHT22;9177;49.156;8.142;2023-01-24T13:57:26;18.60;88.70
18101;DHT22;9177;49.156;8.142;2023-01-24T14:00:02;18.60;88.60
18101;DHT22;9177;49.156;8.142;2023-01-24T14:02:31;18.60;88.60
18101;DHT22;9177;49.156;8.142;2023-01-24T14:04:59;18.60;88.60
18101;DHT22;9177;49.156;8.142;2023-01-24T14:07:29;18.60;88.60
18101;DHT22;9177;49.156;8.142;2023-01-24T14:10:03;18.60;88.60
18101;DHT22;9177;49.156;8.142;2023-01-24T14:12:33;18.60;88.70
18101;DHT22;9177;49.156;8.142;2023-01-24T14:15:04;18.50;88.60
18101;DHT22;9177;49.156;8.142;2023-01-24T14:17:48;18.60;88.70
18101;DHT22;9177;49.156;8.142;2023-01-24T14:20:38;18.60;88.60
18101;DHT22;9177;49.156;8.142;2023-01-24T14:23:20;18.60;88.60
18101;DHT22;9177;49.156;8.142;2023-01-24T14:25:52;18.60;88.60
18101;DHT22;9177;49.156;8.142;2023-01-24T14:28:28;18.60;88.60
18101;DHT22;9177;49.156;8.142;2023-01-24T14:30:59;18.60;88.60
18101;DHT22;9177;49.156;8.142;2023-01-24T14:33:34;18.60;88.60
18101;DHT22;9177;49.156;8.142;2023-01-24T14:36:15;18.60;88.70
18101;DHT22;9177;49.156;8.142;2023-01-24T14:38:44;18.60;88.60
18101;DHT22;9177;49.156;8.142;2023-01-24T14:41:19;18.50;88.60
18101;DHT22;9177;49.156;8.142;2023-01-24T14:43:48;18.50;88.60
18101;DHT22;9177;49.156;8.142;2023-01-24T14:46:20;18.60;88.70
18101;DHT22;9177;49.156;8.142;2023-01-24T14:48:47;18.60;88.70
18101;DHT22;9177;49.156;8.142;2023-01-24T14:51:17;18.50;88.60
18101;DHT22;9177;49.156;8.142;2023-01-24T14:53:49;18.50;88.60
18101;DHT22;9177;49.156;8.142;2023-01-24T14:56:18;18.50;88.60
18101;DHT22;9177;49.156;8.142;2023-01-24T14:58:45;18.50;88.60
18101;DHT22;9177;49.156;8.142;2023-01-24T15:01:25;18.60;88.70
18101;DHT22;9177;49.156;8.142;2023-01-24T15:03:52;18.50;88.80
18101;DHT22;9177;49.156;8.142;2023-01-24T15:06:22;18.50;88.70
18101;DHT22;9177;49.156;8.142;2023-01-24T15:08:53;18.50;88.60
18101;DHT22;9177;49.156;8.142;2023-01-24T15:11:25;18.50;89.40
18101;DHT22;9177;49.156;8.142;2023-01-24T15:13:56;18.50;88.70
18101;DHT22;9177;49.156;8.142;2023-01-24T15:16:29;18.50;88.60
18101;DHT22;9177;49.156;8.142;2023-01-24T15:19:02;18.50;88.60
18101;DHT22;9177;49.156;8.142;2023-01-24T15:21:33;18.50;88.60
18101;DHT22;9177;49.156;8.142;2023-01-24T15:24:01;18.50;88.60
18101;DHT22;9177;49.156;8.142;2023-01-24T15:26:40;18.50;88.60
18101;DHT22;9177;49.156;8.142;2023-01-24T15:32:40;18.50;88.80
18101;DHT22;9177;49.156;8.142;2023-01-24T15:35:27;18.60;88.80
18101;DHT22;9177;49.156;8.142;2023-01-24T15:38:25;18.50;88.80
18101;DHT22;9177;49.156;8.142;2023-01-24T15:41:13;18.50;88.80
18101;DHT22;9177;49.156;8.142;2023-01-24T15:43:48;18.50;88.80
18101;DHT22;9177;49.156;8.142;2023-01-24T15:46:21;18.50;88.80
18101;DHT22;9177;49.156;8.142;2023-01-24T15:52:15;18.50;88.80
18101;DHT22;9177;49.156;8.142;2023-01-24T15:54:44;18.50;88.80
18101;DHT22;9177;49.156;8.142;2023-01-24T15:57:20;18.50;88.80
18101;DHT22;9177;49.156;8.142;2023-01-24T15:59:51;18.50;88.90
18101;DHT22;9177;49.156;8.142;2023-01-24T16:02:19;18.50;88.90
18101;DHT22;9177;49.156;8.142;2023-01-24T16:04:46;18.50;88.90
18101;DHT22;9177;49.156;8.142;2023-01-24T16:07:14;18.60;88.90
18101;DHT22;9177;49.156;8.142;2023-01-24T16:09:43;18.50;88.80
18101;DHT22;9177;49.156;8.142;2023-01-24T16:12:12;18.50;88.80
18101;DHT22;9177;49.156;8.142;2023-01-24T16:14:43;18.60;88.80
18101;DHT22;9177;49.156;8.142;2023-01-24T16:17:12;18.60;88.80
18101;DHT22;9177;49.156;8.142;2023-01-24T16:19:40;18.60;88.90
18101;DHT22;9177;49.156;8.142;2023-01-24T16:22:07;18.60;88.90
18101;DHT22;9177;49.156;8.142;2023-01-24T16:24:34;18.60;88.90
18101;DHT22;9177;49.156;8.142;2023-01-24T16:27:01;18.60;89.00
18101;DHT22;9177;49.156;8.142;2023-01-24T16:29:30;18.60;89.00
18101;DHT22;9177;49.156;8.142;2023-01-24T16:31:57;18.60;89.10